createdAt,value
2023-01-09T00:01:34.148Z,1.00
2023-01-09T00:03:05.912Z,0.60
2023-01-09T00:04:37.832Z,0.90
2023-01-09T00:06:09.928Z,0.70
2023-01-09T00:07:42.099Z,0.70
2023-01-09T00:09:13.938Z,0.90
2023-01-09T00:10:49.338Z,0.90
2023-01-09T00:12:21.137Z,0.60
2023-01-09T00:13:52.898Z,0.90
2023-01-09T00:15:25.210Z,0.90
2023-01-09T00:16:57.869Z,0.50
2023-01-09T00:18:29.622Z,0.70
2023-01-09T00:20:01.521Z,0.60
2023-01-09T00:21:33.500Z,0.60
2023-01-09T00:23:05.436Z,0.50
2023-01-09T00:24:37.420Z,0.60
2023-01-09T00:26:19.188Z,0.50
2023-01-09T00:27:50.927Z,0.40
2023-01-09T00:29:22.747Z,0.30
2023-01-09T00:31:00.286Z,0.40
2023-01-09T00:32:32.822Z,0.50
2023-01-09T00:34:13.173Z,0.40
2023-01-09T00:35:44.905Z,0.40
2023-01-09T00:37:18.123Z,0.40
2023-01-09T00:38:50.593Z,0.40
2023-01-09T00:40:22.524Z,0.40
2023-01-09T00:41:56.600Z,0.30
2023-01-09T00:43:35.753Z,0.40
2023-01-09T00:45:15.803Z,0.40
2023-01-09T00:46:55.828Z,0.50
2023-01-09T00:48:29.789Z,0.40
2023-01-09T00:50:12.076Z,0.60
2023-01-09T00:51:43.987Z,0.80
2023-01-09T00:53:23.368Z,0.70
2023-01-09T00:54:55.157Z,0.50
2023-01-09T00:56:27.067Z,0.50
2023-01-09T00:57:58.853Z,0.40
2023-01-09T00:59:30.774Z,0.70
2023-01-09T01:01:02.679Z,0.60
2023-01-09T01:02:35.095Z,0.50
2023-01-09T01:04:25.590Z,0.70
2023-01-09T01:06:16.187Z,0.20
2023-01-09T01:07:48.041Z,0.40
2023-01-09T01:09:21.019Z,0.40
2023-01-09T01:10:52.983Z,0.40
2023-01-09T01:12:25.511Z,0.20
2023-01-09T01:13:57.316Z,0.40
2023-01-09T01:15:29.610Z,0.30
2023-01-09T01:17:01.623Z,0.30
2023-01-09T01:18:33.631Z,0.30
2023-01-09T01:20:10.996Z,0.20
2023-01-09T01:21:42.788Z,0.30
2023-01-09T01:23:14.699Z,0.30
2023-01-09T01:24:46.667Z,0.30
2023-01-09T01:26:18.473Z,0.30
2023-01-09T01:27:50.841Z,0.30
2023-01-09T01:29:22.666Z,0.30
2023-01-09T01:30:54.477Z,0.40
2023-01-09T01:32:26.458Z,0.20
2023-01-09T01:33:58.158Z,0.30
2023-01-09T01:35:29.946Z,0.30
2023-01-09T01:37:01.724Z,0.30
2023-01-09T01:38:34.945Z,0.40
2023-01-09T01:40:11.023Z,0.30
2023-01-09T01:41:43.001Z,0.30
2023-01-09T01:43:14.755Z,0.30
2023-01-09T01:45:08.771Z,0.30
2023-01-09T01:46:40.545Z,0.30
2023-01-09T01:48:21.266Z,0.20
2023-01-09T01:49:53.059Z,0.10
2023-01-09T01:51:31.597Z,0.20
2023-01-09T01:53:20.909Z,0.30
2023-01-09T01:54:53.499Z,0.20
2023-01-09T01:56:32.619Z,0.20
2023-01-09T01:58:09.093Z,0.10
2023-01-09T01:59:57.326Z,0.20
2023-01-09T02:03:46.936Z,0.20
2023-01-09T02:05:19.616Z,0.20
2023-01-09T02:06:57.594Z,0.20
2023-01-09T02:08:29.405Z,0.20
2023-01-09T02:10:01.891Z,0.20
2023-01-09T02:11:34.334Z,0.20
2023-01-09T02:13:08.867Z,0.20
2023-01-09T02:14:40.671Z,0.20
2023-01-09T02:16:48.237Z,0.20
2023-01-09T02:18:57.001Z,0.20
2023-01-09T02:21:03.631Z,0.20
2023-01-09T02:22:42.192Z,0.30
2023-01-09T02:25:01.683Z,0.20
2023-01-09T02:27:01.908Z,0.40
2023-01-09T02:29:14.631Z,0.30
2023-01-09T02:31:25.506Z,0.20
2023-01-09T02:33:28.172Z,0.20
2023-01-09T02:35:44.245Z,0.20
2023-01-09T02:38:11.212Z,0.20
2023-01-09T02:40:14.761Z,0.10
2023-01-09T02:42:08.977Z,0.10
2023-01-09T02:43:42.011Z,0.10
2023-01-09T02:45:14.474Z,0.20
2023-01-09T02:46:55.375Z,0.10
2023-01-09T02:48:52.926Z,0.10
2023-01-09T02:51:12.941Z,0.10
2023-01-09T02:53:21.261Z,0.30
2023-01-09T02:55:31.390Z,0.20
2023-01-09T02:57:46.556Z,0.10
2023-01-09T02:59:48.270Z,0.30
2023-01-09T03:01:46.545Z,0.20
2023-01-09T03:03:27.582Z,0.20
2023-01-09T03:05:16.387Z,0.20
2023-01-09T03:06:54.370Z,0.20
2023-01-09T03:08:47.913Z,0.30
2023-01-09T03:11:04.796Z,0.30
2023-01-09T03:14:53.749Z,0.30
2023-01-09T03:16:38.715Z,0.40
2023-01-09T03:18:15.578Z,0.50
2023-01-09T03:19:52.643Z,0.30
2023-01-09T03:21:26.437Z,0.20
2023-01-09T03:23:02.808Z,0.30
2023-01-09T03:24:34.664Z,0.20
2023-01-09T03:26:10.558Z,0.20
2023-01-09T03:27:42.368Z,0.20
2023-01-09T03:29:14.127Z,0.20
2023-01-09T03:30:45.835Z,0.20
2023-01-09T03:32:24.032Z,0.40
2023-01-09T03:33:56.118Z,0.30
2023-01-09T03:35:28.666Z,0.40
2023-01-09T03:37:04.321Z,0.50
2023-01-09T03:38:36.034Z,0.50
2023-01-09T03:40:09.117Z,0.70
2023-01-09T03:41:40.864Z,0.60
2023-01-09T03:43:16.316Z,0.40
2023-01-09T03:44:50.899Z,0.60
2023-01-09T03:46:22.698Z,0.70
2023-01-09T03:47:54.790Z,0.70
2023-01-09T03:49:26.627Z,0.70
2023-01-09T03:51:01.733Z,0.70
2023-01-09T03:52:35.984Z,0.60
2023-01-09T03:54:08.110Z,0.60
2023-01-09T03:55:45.332Z,1.00
2023-01-09T03:57:17.762Z,0.80
2023-01-09T03:58:50.711Z,0.80
2023-01-09T04:00:22.822Z,0.70
2023-01-09T04:01:55.746Z,0.80
2023-01-09T04:03:28.859Z,0.80
2023-01-09T04:05:03.167Z,0.80
2023-01-09T04:06:35.161Z,1.00
2023-01-09T04:08:07.452Z,0.80
2023-01-09T04:09:39.235Z,0.60
2023-01-09T04:11:11.082Z,0.80
2023-01-09T04:12:42.901Z,0.90
2023-01-09T04:14:14.978Z,1.00
2023-01-09T04:15:46.830Z,0.90
2023-01-09T04:17:18.677Z,0.80
2023-01-09T04:18:50.493Z,0.70
2023-01-09T04:20:22.333Z,0.70
2023-01-09T04:21:54.183Z,0.70
2023-01-09T04:23:25.988Z,0.70
2023-01-09T04:24:57.728Z,0.80
2023-01-09T04:26:29.518Z,0.70
2023-01-09T04:28:01.329Z,0.60
2023-01-09T04:29:33.113Z,0.50
2023-01-09T04:31:05.332Z,0.50
2023-01-09T04:32:37.113Z,0.90
2023-01-09T04:34:08.792Z,0.80
2023-01-09T04:35:40.609Z,0.40
2023-01-09T04:37:12.543Z,0.60
2023-01-09T04:38:44.311Z,0.50
2023-01-09T04:40:16.697Z,0.70
2023-01-09T04:41:51.661Z,0.80
2023-01-09T04:43:23.485Z,0.60
2023-01-09T04:44:55.288Z,0.70
2023-01-09T04:46:28.687Z,1.00
2023-01-09T04:48:00.453Z,0.80
2023-01-09T04:49:32.688Z,0.60
2023-01-09T04:51:05.458Z,0.90
2023-01-09T04:52:39.012Z,0.80
2023-01-09T04:54:11.047Z,0.80
2023-01-09T04:55:43.164Z,0.70
2023-01-09T04:57:14.993Z,1.00
2023-01-09T04:59:03.842Z,0.80
2023-01-09T05:00:35.877Z,0.60
2023-01-09T05:02:07.853Z,0.70
2023-01-09T05:03:39.729Z,0.80
2023-01-09T05:05:12.073Z,0.70
2023-01-09T05:06:44.001Z,1.00
2023-01-09T05:08:15.705Z,0.70
2023-01-09T05:09:47.507Z,0.80
2023-01-09T05:11:21.955Z,0.70
2023-01-09T05:12:53.655Z,0.70
2023-01-09T05:14:25.405Z,0.60
2023-01-09T05:15:57.211Z,0.80
2023-01-09T05:17:29.321Z,0.50
2023-01-09T05:19:01.091Z,0.70
2023-01-09T05:20:32.867Z,0.60
2023-01-09T05:22:04.990Z,0.70
2023-01-09T05:23:37.805Z,0.50
2023-01-09T05:25:09.929Z,0.80
2023-01-09T05:26:41.676Z,0.70
2023-01-09T05:28:13.490Z,1.00
2023-01-09T05:29:45.268Z,1.00
2023-01-09T05:31:18.731Z,0.60
2023-01-09T05:32:50.487Z,0.60
2023-01-09T05:34:23.627Z,0.40
2023-01-09T05:35:55.410Z,0.70
2023-01-09T05:37:27.159Z,0.50
2023-01-09T05:38:58.905Z,0.90
2023-01-09T05:40:40.043Z,0.50
2023-01-09T05:42:12.447Z,0.30
2023-01-09T05:43:44.246Z,0.50
2023-01-09T05:45:16.062Z,0.60
2023-01-09T05:46:48.490Z,0.50
2023-01-09T05:48:20.296Z,0.60
2023-01-09T05:49:52.214Z,0.50
2023-01-09T05:51:24.354Z,0.50
2023-01-09T05:52:56.053Z,0.40
2023-01-09T05:54:27.795Z,0.30
2023-01-09T05:55:59.571Z,0.50
2023-01-09T05:57:31.440Z,0.30
2023-01-09T05:59:03.224Z,0.50
2023-01-09T06:00:35.124Z,0.40
2023-01-09T06:02:07.384Z,0.40
2023-01-09T06:03:39.173Z,0.30
2023-01-09T06:05:11.057Z,0.70
2023-01-09T06:06:42.871Z,0.30
2023-01-09T06:08:15.137Z,0.60
2023-01-09T06:09:47.091Z,0.30
2023-01-09T06:11:18.853Z,0.30
2023-01-09T06:12:52.213Z,0.20
2023-01-09T06:14:25.555Z,0.40
2023-01-09T06:15:57.372Z,0.40
2023-01-09T06:17:29.319Z,0.30
2023-01-09T06:19:01.059Z,0.40
2023-01-09T06:20:33.261Z,0.30
2023-01-09T06:22:05.121Z,0.50
2023-01-09T06:23:36.861Z,0.50
2023-01-09T06:25:09.708Z,0.40
2023-01-09T06:26:41.562Z,0.40
2023-01-09T06:28:13.524Z,0.40
2023-01-09T06:29:45.322Z,0.30
2023-01-09T06:31:17.189Z,2.00
2023-01-09T06:32:49.946Z,0.50
2023-01-09T06:34:21.680Z,0.90
2023-01-09T06:35:53.532Z,0.40
2023-01-09T06:37:26.449Z,0.30
2023-01-09T06:39:00.217Z,0.40
2023-01-09T06:40:31.996Z,0.30
2023-01-09T06:42:04.711Z,0.30
2023-01-09T06:43:36.484Z,0.60
2023-01-09T06:45:09.450Z,0.30
2023-01-09T06:46:41.874Z,0.30
2023-01-09T06:48:13.924Z,0.40
2023-01-09T06:49:45.665Z,0.30
2023-01-09T06:51:18.010Z,0.50
2023-01-09T06:52:49.897Z,0.50
2023-01-09T06:54:23.776Z,0.70
2023-01-09T06:55:55.658Z,0.50
2023-01-09T06:57:27.697Z,0.30
2023-01-09T06:59:01.213Z,0.40
2023-01-09T07:00:33.344Z,0.60
2023-01-09T07:02:05.218Z,0.50
2023-01-09T07:03:37.194Z,0.50
2023-01-09T07:05:11.977Z,0.20
2023-01-09T07:06:47.771Z,0.50
2023-01-09T07:08:19.668Z,0.50
2023-01-09T07:09:51.795Z,0.50
2023-01-09T07:11:23.554Z,0.40
2023-01-09T07:12:55.249Z,0.60
2023-01-09T07:14:26.959Z,0.40
2023-01-09T07:15:58.816Z,0.40
2023-01-09T07:17:30.617Z,0.50
2023-01-09T07:19:02.388Z,0.50
2023-01-09T07:20:34.336Z,0.40
2023-01-09T07:22:06.076Z,0.50
2023-01-09T07:23:37.857Z,0.40
2023-01-09T07:25:09.902Z,0.60
2023-01-09T07:26:43.344Z,0.50
2023-01-09T07:28:15.276Z,0.60
2023-01-09T07:29:47.138Z,0.70
2023-01-09T07:31:18.952Z,0.40
2023-01-09T07:32:50.807Z,0.40
2023-01-09T07:34:22.636Z,0.40
2023-01-09T07:35:54.418Z,0.50
2023-01-09T07:37:26.246Z,0.50
2023-01-09T07:38:57.976Z,0.60
2023-01-09T07:40:30.124Z,0.50
2023-01-09T07:42:01.992Z,0.50
2023-01-09T07:43:33.804Z,0.40
2023-01-09T07:45:06.947Z,1.00
2023-01-09T07:46:40.508Z,0.40
2023-01-09T07:48:12.253Z,0.50
2023-01-09T07:49:44.054Z,0.60
2023-01-09T07:51:15.912Z,0.40
2023-01-09T07:52:48.479Z,0.60
2023-01-09T07:54:20.339Z,0.30
2023-01-09T07:55:54.992Z,0.50
2023-01-09T07:57:29.847Z,0.30
2023-01-09T07:59:01.906Z,0.20
2023-01-09T08:00:36.788Z,0.40
2023-01-09T08:02:10.906Z,0.50
2023-01-09T08:03:42.972Z,0.40
2023-01-09T08:05:16.088Z,0.40
2023-01-09T08:06:48.056Z,0.40
2023-01-09T08:08:20.253Z,0.40
2023-01-09T08:09:52.455Z,0.50
2023-01-09T08:11:25.482Z,0.30
2023-01-09T08:12:57.750Z,0.40
2023-01-09T08:14:29.665Z,0.60
2023-01-09T08:16:01.463Z,0.30
2023-01-09T08:17:35.599Z,0.50
2023-01-09T08:19:07.784Z,0.50
2023-01-09T08:20:41.848Z,0.50
2023-01-09T08:22:17.021Z,0.30
2023-01-09T08:23:51.731Z,0.40
2023-01-09T08:25:24.677Z,0.40
2023-01-09T08:26:58.858Z,0.40
2023-01-09T08:28:31.179Z,0.40
2023-01-09T08:30:06.222Z,0.40
2023-01-09T08:31:38.127Z,0.40
2023-01-09T08:33:17.201Z,0.30
2023-01-09T08:34:50.108Z,0.60
2023-01-09T08:36:26.609Z,0.30
2023-01-09T08:38:00.927Z,0.50
2023-01-09T08:39:36.050Z,0.40
2023-01-09T08:41:27.749Z,0.50
2023-01-09T08:43:19.217Z,0.60
2023-01-09T08:45:09.878Z,0.50
2023-01-09T08:47:01.859Z,0.50
2023-01-09T08:50:25.675Z,0.30
2023-01-09T08:51:59.570Z,0.50
2023-01-09T08:53:34.695Z,1.00
2023-01-09T08:55:08.459Z,0.50
2023-01-09T08:56:40.947Z,1.40
2023-01-09T08:58:15.746Z,0.50
2023-01-09T08:59:48.011Z,0.50
2023-01-09T09:01:19.748Z,0.40
2023-01-09T09:03:00.831Z,0.50
2023-01-09T09:04:37.275Z,0.40
2023-01-09T09:06:09.557Z,0.60
2023-01-09T09:07:44.341Z,0.50
2023-01-09T09:09:16.341Z,0.50
2023-01-09T09:10:48.526Z,0.60
2023-01-09T09:12:22.974Z,0.50
2023-01-09T09:13:54.738Z,0.40
2023-01-09T09:15:28.614Z,0.60
2023-01-09T09:17:01.023Z,0.40
2023-01-09T09:18:34.282Z,0.60
2023-01-09T09:20:11.419Z,0.60
2023-01-09T09:21:43.600Z,0.40
2023-01-09T09:23:15.984Z,0.50
2023-01-09T09:24:48.210Z,0.50
2023-01-09T09:26:20.389Z,0.40
2023-01-09T09:27:56.657Z,0.60
2023-01-09T09:29:28.711Z,0.60
2023-01-09T09:31:05.399Z,0.50
2023-01-09T09:32:41.638Z,0.30
2023-01-09T09:34:16.074Z,0.50
2023-01-09T09:35:48.083Z,0.40
2023-01-09T09:37:21.641Z,0.60
2023-01-09T09:38:53.948Z,0.70
2023-01-09T09:40:54.064Z,0.60
2023-01-09T09:43:16.893Z,0.50
2023-01-09T09:45:13.926Z,0.50
2023-01-09T09:47:06.545Z,0.70
2023-01-09T09:48:56.704Z,0.50
2023-01-09T09:50:41.613Z,0.30
2023-01-09T09:52:55.407Z,0.50
2023-01-09T09:54:43.596Z,0.30
2023-01-09T09:56:21.660Z,0.70
2023-01-09T09:57:55.159Z,0.70
2023-01-09T09:59:33.607Z,0.50
2023-01-09T10:01:08.584Z,0.60
2023-01-09T10:03:33.418Z,1.00
2023-01-09T10:05:19.794Z,0.40
2023-01-09T10:07:00.557Z,0.40
2023-01-09T10:08:58.039Z,0.50
2023-01-09T10:10:38.909Z,0.60
2023-01-09T10:12:47.575Z,0.50
2023-01-09T10:14:24.408Z,1.10
2023-01-09T10:16:29.258Z,0.50
2023-01-09T10:18:16.036Z,0.50
2023-01-09T10:19:50.498Z,0.70
2023-01-09T10:21:52.186Z,0.70
2023-01-09T10:23:57.919Z,0.30
2023-01-09T10:26:00.913Z,0.60
2023-01-09T10:28:04.463Z,0.40
2023-01-09T10:30:00.948Z,0.40
2023-01-09T10:31:55.212Z,0.60
2023-01-09T10:33:41.998Z,0.50
2023-01-09T10:36:03.579Z,0.50
2023-01-09T10:37:47.317Z,0.60
2023-01-09T10:39:35.449Z,0.30
2023-01-09T10:41:27.284Z,0.50
2023-01-09T10:43:14.289Z,0.80
2023-01-09T10:45:20.188Z,0.40
2023-01-09T10:46:58.713Z,0.40
2023-01-09T10:48:36.477Z,0.40
2023-01-09T10:50:34.701Z,0.50
2023-01-09T10:52:11.233Z,0.50
2023-01-09T10:53:50.188Z,0.40
2023-01-09T10:55:47.839Z,0.40
2023-01-09T10:57:44.523Z,0.50
2023-01-09T10:59:16.368Z,0.60
2023-01-09T11:00:50.902Z,0.30
2023-01-09T11:02:36.234Z,0.70
2023-01-09T11:04:31.098Z,0.40
2023-01-09T11:06:05.121Z,0.20
2023-01-09T11:07:42.374Z,0.30
2023-01-09T11:09:16.510Z,0.60
2023-01-09T11:10:52.355Z,0.40
2023-01-09T11:12:28.440Z,0.50
2023-01-09T11:14:31.639Z,0.50
2023-01-09T11:16:22.171Z,0.50
2023-01-09T11:17:55.220Z,0.50
2023-01-09T11:19:29.470Z,0.50
2023-01-09T11:21:40.498Z,0.40
2023-01-09T11:23:33.948Z,0.40
2023-01-09T11:25:13.366Z,0.40
2023-01-09T11:26:51.733Z,0.60
2023-01-09T11:28:25.074Z,0.50
2023-01-09T11:30:18.846Z,0.50
2023-01-09T11:32:01.686Z,0.50
2023-01-09T11:33:50.034Z,0.50
2023-01-09T11:35:34.653Z,0.40
2023-01-09T11:37:11.662Z,0.40
2023-01-09T11:38:53.387Z,0.60
2023-01-09T11:40:25.635Z,0.60
2023-01-09T11:42:01.613Z,0.40
2023-01-09T11:43:39.853Z,0.60
2023-01-09T11:45:29.973Z,0.40
2023-01-09T11:47:03.779Z,0.60
2023-01-09T11:49:13.026Z,0.50
2023-01-09T11:50:56.071Z,0.40
2023-01-09T11:52:27.830Z,0.40
2023-01-09T11:54:19.773Z,0.80
2023-01-09T11:56:01.963Z,0.70
2023-01-09T11:57:34.647Z,0.40
2023-01-09T11:59:17.441Z,0.50
2023-01-09T12:01:30.388Z,0.60
2023-01-09T12:03:20.294Z,0.40
2023-01-09T12:05:02.869Z,0.50
2023-01-09T12:07:12.217Z,0.50
2023-01-09T12:08:56.918Z,0.60
2023-01-09T12:11:02.800Z,0.60
2023-01-09T12:13:19.226Z,0.50
2023-01-09T12:15:20.628Z,0.70
2023-01-09T12:17:20.569Z,0.60
2023-01-09T12:19:08.107Z,0.40
2023-01-09T12:20:52.087Z,1.00
2023-01-09T12:22:40.006Z,0.80
2023-01-09T12:24:29.096Z,0.70
2023-01-09T12:26:03.844Z,1.20
2023-01-09T12:28:22.515Z,0.50
2023-01-09T12:30:44.987Z,0.80
2023-01-09T12:32:31.981Z,0.80
2023-01-09T12:34:55.534Z,0.70
2023-01-09T12:36:53.661Z,0.80
2023-01-09T12:38:31.973Z,0.60
2023-01-09T12:40:16.024Z,1.50
2023-01-09T12:42:26.186Z,0.90
2023-01-09T12:44:36.546Z,0.80
2023-01-09T12:46:24.784Z,0.80
2023-01-09T12:48:57.328Z,0.80
2023-01-09T12:50:47.017Z,0.60
2023-01-09T12:52:26.371Z,0.70
2023-01-09T12:54:21.422Z,0.60
2023-01-09T12:56:06.587Z,0.50
2023-01-09T12:57:51.177Z,0.50
2023-01-09T12:59:54.157Z,0.80
2023-01-09T13:01:34.780Z,0.60
2023-01-09T13:03:27.262Z,0.50
2023-01-09T13:05:21.515Z,0.60
2023-01-09T13:07:01.710Z,0.70
2023-01-09T13:08:41.497Z,0.80
2023-01-09T13:10:30.831Z,0.50
2023-01-09T13:12:36.891Z,0.60
2023-01-09T13:14:21.592Z,0.60
2023-01-09T13:15:58.209Z,0.60
2023-01-09T13:17:45.815Z,1.00
2023-01-09T13:19:40.023Z,0.70
2023-01-09T13:21:15.668Z,0.80
2023-01-09T13:22:51.223Z,0.90
2023-01-09T13:25:05.519Z,0.80
2023-01-09T13:26:47.728Z,0.90
2023-01-09T13:28:31.901Z,0.70
2023-01-09T13:30:26.337Z,0.60
2023-01-09T13:32:49.548Z,1.10
2023-01-09T13:34:27.253Z,0.60
2023-01-09T13:36:03.460Z,0.70
2023-01-09T13:37:37.192Z,0.70
2023-01-09T13:39:26.986Z,0.60
2023-01-09T13:41:36.533Z,0.90
2023-01-09T13:43:13.797Z,1.00
2023-01-09T13:44:49.801Z,1.10
2023-01-09T13:46:22.179Z,0.90
2023-01-09T13:48:14.638Z,0.90
2023-01-09T13:49:51.642Z,1.30
2023-01-09T13:51:41.935Z,1.00
2023-01-09T13:53:20.242Z,0.80
2023-01-09T13:54:55.392Z,0.70
2023-01-09T13:56:27.283Z,1.60
2023-01-09T13:58:05.431Z,1.00
2023-01-09T13:59:37.433Z,1.50
2023-01-09T14:01:39.514Z,1.00
2023-01-09T14:03:24.011Z,1.20
2023-01-09T14:04:55.818Z,1.00
2023-01-09T14:06:28.471Z,0.90
2023-01-09T14:08:21.632Z,1.30
2023-01-09T14:10:04.742Z,1.40
2023-01-09T14:11:37.327Z,1.10
2023-01-09T14:13:21.408Z,1.00
2023-01-09T14:14:58.597Z,1.30
2023-01-09T14:16:32.339Z,1.20
2023-01-09T14:18:26.111Z,1.00
2023-01-09T14:20:05.435Z,1.40
2023-01-09T14:21:58.789Z,1.20
2023-01-09T14:23:51.627Z,1.40
2023-01-09T14:25:29.703Z,1.70
2023-01-09T14:27:02.288Z,1.10
2023-01-09T14:28:34.272Z,1.40
2023-01-09T14:30:53.730Z,1.20
2023-01-09T14:32:30.744Z,1.40
2023-01-09T14:34:35.246Z,1.30
2023-01-09T14:36:21.816Z,1.30
2023-01-09T14:38:14.126Z,1.20
2023-01-09T14:39:49.536Z,1.20
2023-01-09T14:41:58.006Z,1.30
2023-01-09T14:43:48.691Z,1.80
2023-01-09T14:45:27.078Z,1.30
2023-01-09T14:47:35.603Z,1.50
2023-01-09T14:49:29.826Z,1.80
2023-01-09T14:51:02.674Z,2.10
2023-01-09T14:52:44.909Z,1.40
2023-01-09T14:54:42.946Z,1.50
2023-01-09T14:56:31.731Z,1.20
2023-01-09T14:58:32.944Z,1.50
2023-01-09T15:00:12.978Z,1.00
2023-01-09T15:01:49.527Z,1.50
2023-01-09T15:03:24.294Z,1.80
2023-01-09T15:05:05.138Z,1.40
2023-01-09T15:06:43.441Z,1.70
2023-01-09T15:08:22.747Z,1.80
2023-01-09T15:09:55.486Z,1.30
2023-01-09T15:11:29.463Z,1.10
2023-01-09T15:13:08.310Z,1.50
2023-01-09T15:14:48.197Z,1.30
2023-01-09T15:16:26.477Z,1.20
2023-01-09T15:18:04.220Z,1.40
2023-01-09T15:19:36.035Z,1.70
2023-01-09T15:21:21.962Z,1.30
2023-01-09T15:22:55.333Z,1.30
2023-01-09T15:24:32.395Z,1.30
2023-01-09T15:26:33.815Z,1.40
2023-01-09T15:28:20.685Z,1.70
2023-01-09T15:29:53.284Z,1.30
2023-01-09T15:31:26.197Z,1.60
2023-01-09T15:32:58.050Z,1.60
2023-01-09T15:34:29.975Z,1.30
2023-01-09T15:36:12.809Z,2.00
2023-01-09T15:37:45.075Z,1.90
2023-01-09T15:39:27.349Z,1.70
2023-01-09T15:41:06.772Z,1.80
2023-01-09T15:42:58.483Z,1.70
2023-01-09T15:44:36.703Z,2.00
2023-01-09T15:46:12.228Z,1.50
2023-01-09T15:47:44.057Z,2.50
2023-01-09T15:49:17.907Z,1.60
2023-01-09T15:51:13.585Z,1.30
2023-01-09T15:52:45.593Z,1.40
2023-01-09T15:54:29.974Z,3.30
2023-01-09T15:56:25.640Z,2.00
2023-01-09T15:57:57.921Z,1.70
2023-01-09T15:59:29.845Z,1.60
2023-01-09T16:01:37.921Z,2.20
2023-01-09T16:03:24.200Z,2.00
2023-01-09T16:04:56.658Z,2.20
2023-01-09T16:06:32.300Z,1.60
2023-01-09T16:08:05.550Z,2.40
2023-01-09T16:09:38.634Z,2.40
2023-01-09T16:11:24.634Z,2.20
2023-01-09T16:12:57.096Z,1.80
2023-01-09T16:14:38.873Z,2.10
2023-01-09T16:16:12.614Z,2.20
2023-01-09T16:18:17.436Z,1.70
2023-01-09T16:20:15.845Z,2.70
2023-01-09T16:22:00.607Z,1.80
2023-01-09T16:23:36.340Z,1.50
2023-01-09T16:25:32.379Z,2.80
2023-01-09T16:27:31.072Z,2.40
2023-01-09T16:29:36.722Z,1.30
2023-01-09T16:31:30.827Z,2.20
2023-01-09T16:33:02.763Z,2.50
2023-01-09T16:34:36.313Z,2.00
2023-01-09T16:36:10.630Z,2.20
2023-01-09T16:37:42.432Z,2.20
2023-01-09T16:39:17.577Z,2.30
2023-01-09T16:41:18.623Z,2.00
2023-01-09T16:43:01.716Z,2.40
2023-01-09T16:44:36.073Z,2.50
2023-01-09T16:46:08.288Z,2.00
2023-01-09T16:47:42.833Z,2.40
2023-01-09T16:49:20.714Z,1.80
2023-01-09T16:50:52.457Z,2.00
2023-01-09T16:52:24.626Z,2.60
2023-01-09T16:53:57.693Z,3.30
2023-01-09T16:55:29.534Z,2.10
2023-01-09T16:57:02.620Z,3.80
2023-01-09T16:58:36.100Z,2.90
2023-01-09T17:00:21.352Z,2.60
2023-01-09T17:01:55.607Z,2.50
2023-01-09T17:03:27.515Z,3.20
2023-01-09T17:04:59.575Z,2.60
2023-01-09T17:06:32.792Z,2.50
2023-01-09T17:08:22.245Z,4.40
2023-01-09T17:09:55.443Z,3.40
2023-01-09T17:11:33.309Z,3.70
2023-01-09T17:13:06.829Z,4.50
2023-01-09T17:14:38.695Z,4.40
2023-01-09T17:16:12.036Z,4.80
2023-01-09T17:17:43.902Z,4.50
2023-01-09T17:19:19.937Z,4.80
2023-01-09T17:20:57.052Z,4.60
2023-01-09T17:22:28.798Z,4.10
2023-01-09T17:24:19.199Z,3.80
2023-01-09T17:26:16.045Z,4.00
2023-01-09T17:28:06.502Z,3.90
2023-01-09T17:29:38.409Z,3.80
2023-01-09T17:31:11.981Z,3.70
2023-01-09T17:32:44.901Z,3.90
2023-01-09T17:34:16.793Z,4.50
2023-01-09T17:35:48.753Z,3.20
2023-01-09T17:37:21.091Z,3.20
2023-01-09T17:38:57.270Z,3.80
2023-01-09T17:40:30.471Z,3.80
2023-01-09T17:42:02.451Z,3.20
2023-01-09T17:43:34.647Z,4.10
2023-01-09T17:45:07.153Z,4.10
2023-01-09T17:46:46.960Z,3.60
2023-01-09T17:48:22.774Z,4.80
2023-01-09T17:49:55.818Z,3.50
2023-01-09T17:51:32.296Z,4.90
2023-01-09T17:53:04.296Z,3.90
2023-01-09T17:54:37.425Z,5.90
2023-01-09T17:56:23.902Z,6.30
2023-01-09T17:57:55.797Z,4.70
2023-01-09T17:59:30.339Z,5.30
2023-01-09T18:01:07.063Z,2.60
2023-01-09T18:02:39.105Z,2.20
2023-01-09T18:04:12.735Z,1.90
2023-01-09T18:05:47.046Z,1.20
2023-01-09T18:07:19.488Z,1.40
2023-01-09T18:08:51.454Z,1.60
2023-01-09T18:10:29.902Z,1.70
2023-01-09T18:12:07.682Z,3.60
2023-01-09T18:13:41.148Z,2.20
2023-01-09T18:15:13.267Z,1.90
2023-01-09T18:16:47.313Z,2.40
2023-01-09T18:18:20.198Z,3.10
2023-01-09T18:19:52.650Z,3.50
2023-01-09T18:21:28.043Z,4.60
2023-01-09T18:23:00.522Z,4.20
2023-01-09T18:24:33.001Z,3.90
2023-01-09T18:26:08.898Z,4.30
2023-01-09T18:27:40.815Z,4.60
2023-01-09T18:29:14.327Z,4.20
2023-01-09T18:30:48.045Z,3.80
2023-01-09T18:32:19.879Z,3.90
2023-01-09T18:33:54.747Z,4.10
2023-01-09T18:35:26.866Z,4.70
2023-01-09T18:36:58.939Z,3.60
2023-01-09T18:38:30.815Z,3.60
2023-01-09T18:40:03.141Z,3.00
2023-01-09T18:41:35.962Z,3.00
2023-01-09T18:43:10.461Z,3.60
2023-01-09T18:44:42.301Z,3.60
2023-01-09T18:46:14.751Z,3.60
2023-01-09T18:47:49.172Z,3.50
2023-01-09T18:49:21.220Z,3.90
2023-01-09T18:51:06.768Z,2.00
2023-01-09T18:52:42.854Z,3.50
2023-01-09T18:54:14.909Z,3.30
2023-01-09T18:55:47.387Z,3.50
2023-01-09T18:57:21.623Z,2.80
2023-01-09T18:58:58.178Z,3.10
2023-01-09T19:00:30.359Z,2.50
2023-01-09T19:02:02.430Z,3.20
2023-01-09T19:03:34.736Z,3.00
2023-01-09T19:05:08.452Z,3.00
2023-01-09T19:06:40.284Z,3.00
2023-01-09T19:08:13.882Z,3.80
2023-01-09T19:09:47.476Z,3.90
2023-01-09T19:11:19.400Z,3.20
2023-01-09T19:12:51.282Z,3.10
2023-01-09T19:14:23.339Z,3.70
2023-01-09T19:15:57.380Z,3.20
2023-01-09T19:17:31.379Z,3.70
2023-01-09T19:19:06.415Z,4.20
2023-01-09T19:20:39.582Z,3.40
2023-01-09T19:22:11.716Z,3.60
2023-01-09T19:23:46.085Z,3.50
2023-01-09T19:25:18.019Z,3.00
2023-01-09T19:26:50.111Z,3.60
2023-01-09T19:28:24.925Z,4.10
2023-01-09T19:29:57.573Z,3.70
2023-01-09T19:31:32.155Z,3.90
2023-01-09T19:33:04.734Z,4.30
2023-01-09T19:34:36.686Z,3.70
2023-01-09T19:36:09.138Z,3.60
2023-01-09T19:37:40.985Z,4.20
2023-01-09T19:39:13.241Z,4.10
2023-01-09T19:40:47.633Z,3.00
2023-01-09T19:42:22.085Z,4.20
2023-01-09T19:43:54.731Z,4.70
2023-01-09T19:45:26.757Z,3.60
2023-01-09T19:46:59.366Z,4.10
2023-01-09T19:48:31.202Z,4.30
2023-01-09T19:50:06.769Z,4.30
2023-01-09T19:51:38.755Z,4.70
2023-01-09T19:53:10.793Z,5.10
2023-01-09T19:54:42.713Z,5.10
2023-01-09T19:56:24.593Z,5.60
2023-01-09T19:57:56.415Z,6.20
2023-01-09T19:59:28.346Z,5.20
2023-01-09T20:01:17.373Z,5.10
2023-01-09T20:02:50.427Z,5.10
2023-01-09T20:04:23.561Z,6.10
2023-01-09T20:05:55.433Z,5.30
2023-01-09T20:07:28.283Z,5.10
2023-01-09T20:09:05.315Z,6.20
2023-01-09T20:10:37.488Z,5.60
2023-01-09T20:12:09.454Z,5.70
2023-01-09T20:13:43.127Z,6.10
2023-01-09T20:15:15.252Z,5.40
2023-01-09T20:16:56.561Z,4.40
2023-01-09T20:18:31.377Z,5.00
2023-01-09T20:20:03.605Z,4.90
2023-01-09T20:21:37.324Z,4.70
2023-01-09T20:23:10.620Z,5.70
2023-01-09T20:24:42.633Z,4.70
2023-01-09T20:26:16.751Z,4.40
2023-01-09T20:27:48.759Z,5.80
2023-01-09T20:29:22.430Z,5.20
2023-01-09T20:30:55.220Z,4.70
2023-01-09T20:32:28.191Z,5.60
2023-01-09T20:34:00.644Z,6.20
2023-01-09T20:35:32.806Z,5.80
2023-01-09T20:37:05.017Z,5.00
2023-01-09T20:38:39.662Z,4.40
2023-01-09T20:40:18.545Z,4.50
2023-01-09T20:41:50.382Z,4.30
2023-01-09T20:43:23.614Z,4.90
2023-01-09T20:44:57.320Z,5.40
2023-01-09T20:46:33.276Z,4.60
2023-01-09T20:48:05.435Z,5.00
2023-01-09T20:49:37.283Z,5.30
2023-01-09T20:51:11.485Z,4.70
2023-01-09T20:52:43.765Z,5.10
2023-01-09T20:54:19.199Z,3.30
2023-01-09T20:55:51.600Z,3.60
2023-01-09T20:57:23.433Z,5.30
2023-01-09T20:58:56.688Z,4.30
2023-01-09T21:00:32.632Z,4.00
2023-01-09T21:02:04.559Z,4.80
2023-01-09T21:03:36.637Z,4.80
2023-01-09T21:05:08.855Z,3.90
2023-01-09T21:06:41.317Z,7.50
2023-01-09T21:08:14.845Z,6.00
2023-01-09T21:09:46.875Z,5.50
2023-01-09T21:11:21.982Z,5.50
2023-01-09T21:12:53.857Z,3.40
2023-01-09T21:14:28.191Z,4.60
2023-01-09T21:16:09.712Z,5.30
2023-01-09T21:17:42.631Z,5.40
2023-01-09T21:19:15.738Z,5.00
2023-01-09T21:20:49.983Z,4.50
2023-01-09T21:22:22.090Z,5.50
2023-01-09T21:23:57.834Z,5.20
2023-01-09T21:25:30.049Z,5.60
2023-01-09T21:27:01.812Z,5.80
2023-01-09T21:28:40.740Z,5.10
2023-01-09T21:30:12.954Z,4.80
2023-01-09T21:31:45.090Z,3.60
2023-01-09T21:33:24.311Z,3.90
2023-01-09T21:34:56.110Z,3.90
2023-01-09T21:36:27.909Z,3.90
2023-01-09T21:37:59.756Z,4.30
2023-01-09T21:39:31.711Z,3.70
2023-01-09T21:41:22.188Z,3.20
2023-01-09T21:43:13.024Z,4.00
2023-01-09T21:45:03.742Z,4.30
2023-01-09T21:46:56.180Z,4.30
2023-01-09T21:48:27.988Z,3.70
2023-01-09T21:50:00.159Z,3.90
2023-01-09T21:51:39.918Z,4.70
2023-01-09T21:53:11.774Z,4.40
2023-01-09T21:54:43.719Z,3.60
2023-01-09T21:56:16.189Z,4.00
2023-01-09T21:57:48.493Z,3.60
2023-01-09T21:59:20.891Z,4.30
2023-01-09T22:01:01.014Z,3.50